sensor_id;sensor_type;location;lat;lon;timestamp;temperature;humidity
5492;DHT22;2768;53.540;10.224;2023-11-21T00:00:44;10.40;99.90
5492;DHT22;2768;53.540;10.224;2023-11-21T00:06:39;10.40;99.90
5492;DHT22;2768;53.540;10.224;2023-11-21T00:12:33;10.30;99.90
5492;DHT22;2768;53.540;10.224;2023-11-21T00:18:26;10.30;99.90
5492;DHT22;2768;53.540;10.224;2023-11-21T00:24:21;10.10;99.90
5492;DHT22;2768;53.540;10.224;2023-11-21T00:30:15;10.20;99.90
5492;DHT22;2768;53.540;10.224;2023-11-21T00:36:09;10.20;99.90
5492;DHT22;2768;53.540;10.224;2023-11-21T00:42:04;10.20;99.90
5492;DHT22;2768;53.540;10.224;2023-11-21T00:47:57;10.20;99.90
5492;DHT22;2768;53.540;10.224;2023-11-21T00:53:51;10.00;99.90
5492;DHT22;2768;53.540;10.224;2023-11-21T00:59:47;9.90;99.90
5492;DHT22;2768;53.540;10.224;2023-11-21T01:05:40;9.90;99.90
5492;DHT22;2768;53.540;10.224;2023-11-21T01:11:34;9.80;99.90
5492;DHT22;2768;53.540;10.224;2023-11-21T01:17:30;9.80;99.90
5492;DHT22;2768;53.540;10.224;2023-11-21T01:23:24;9.80;97.60
5492;DHT22;2768;53.540;10.224;2023-11-21T01:29:18;9.60;58.20
5492;DHT22;2768;53.540;10.224;2023-11-21T01:35:13;9.70;63.20
5492;DHT22;2768;53.540;10.224;2023-11-21T01:41:07;9.80;64.60
5492;DHT22;2768;53.540;10.224;2023-11-21T01:47:01;9.70;28.40
5492;DHT22;2768;53.540;10.224;2023-11-21T01:52:58;9.70;13.10
5492;DHT22;2768;53.540;10.224;2023-11-21T01:58:53;9.70;1.00
5492;DHT22;2768;53.540;10.224;2023-11-21T02:04:47;9.70;1.00
5492;DHT22;2768;53.540;10.224;2023-11-21T02:10:42;9.60;1.00
5492;DHT22;2768;53.540;10.224;2023-11-21T02:16:35;9.60;1.00
5492;DHT22;2768;53.540;10.224;2023-11-21T02:22:31;9.60;1.00
5492;DHT22;2768;53.540;10.224;2023-11-21T02:28:27;9.40;1.00
5492;DHT22;2768;53.540;10.224;2023-11-21T02:34:22;9.50;1.00
5492;DHT22;2768;53.540;10.224;2023-11-21T02:40:17;9.50;1.00
5492;DHT22;2768;53.540;10.224;2023-11-21T02:46:13;9.50;1.00
5492;DHT22;2768;53.540;10.224;2023-11-21T02:52:07;9.50;1.00
5492;DHT22;2768;53.540;10.224;2023-11-21T02:58:01;9.60;1.00
5492;DHT22;2768;53.540;10.224;2023-11-21T03:03:57;9.40;1.00
5492;DHT22;2768;53.540;10.224;2023-11-21T03:09:51;9.40;1.00
5492;DHT22;2768;53.540;10.224;2023-11-21T03:15:44;9.50;1.00
5492;DHT22;2768;53.540;10.224;2023-11-21T03:21:39;9.30;1.00
5492;DHT22;2768;53.540;10.224;2023-11-21T03:27:33;9.30;1.00
5492;DHT22;2768;53.540;10.224;2023-11-21T03:33:27;9.30;1.00
5492;DHT22;2768;53.540;10.224;2023-11-21T03:39:22;9.20;1.00
5492;DHT22;2768;53.540;10.224;2023-11-21T03:45:17;9.40;1.00
5492;DHT22;2768;53.540;10.224;2023-11-21T03:51:11;9.30;1.00
5492;DHT22;2768;53.540;10.224;2023-11-21T03:57:06;9.40;1.00
5492;DHT22;2768;53.540;10.224;2023-11-21T04:03:01;9.10;1.00
5492;DHT22;2768;53.540;10.224;2023-11-21T04:08:56;9.40;1.00
5492;DHT22;2768;53.540;10.224;2023-11-21T04:14:51;9.30;1.00
5492;DHT22;2768;53.540;10.224;2023-11-21T04:20:48;9.10;1.00
5492;DHT22;2768;53.540;10.224;2023-11-21T04:26:41;9.10;1.00
5492;DHT22;2768;53.540;10.224;2023-11-21T04:32:36;9.30;1.00
5492;DHT22;2768;53.540;10.224;2023-11-21T04:38:31;9.10;1.00
5492;DHT22;2768;53.540;10.224;2023-11-21T04:44:25;9.20;1.00
5492;DHT22;2768;53.540;10.224;2023-11-21T04:50:20;9.10;1.00
5492;DHT22;2768;53.540;10.224;2023-11-21T04:56:14;9.00;1.00
5492;DHT22;2768;53.540;10.224;2023-11-21T05:02:07;9.00;1.00
5492;DHT22;2768;53.540;10.224;2023-11-21T05:08:13;9.20;1.00
5492;DHT22;2768;53.540;10.224;2023-11-21T05:14:06;9.30;1.00
5492;DHT22;2768;53.540;10.224;2023-11-21T05:19:59;9.10;1.00
5492;DHT22;2768;53.540;10.224;2023-11-21T05:25:54;9.00;1.00
5492;DHT22;2768;53.540;10.224;2023-11-21T05:31:48;9.10;1.00
5492;DHT22;2768;53.540;10.224;2023-11-21T05:37:41;9.10;1.00
5492;DHT22;2768;53.540;10.224;2023-11-21T05:43:36;9.10;1.00
5492;DHT22;2768;53.540;10.224;2023-11-21T05:49:29;8.90;1.00
5492;DHT22;2768;53.540;10.224;2023-11-21T05:55:23;8.90;1.00
5492;DHT22;2768;53.540;10.224;2023-11-21T06:01:19;8.80;1.00
5492;DHT22;2768;53.540;10.224;2023-11-21T06:07:13;9.00;1.00
5492;DHT22;2768;53.540;10.224;2023-11-21T06:13:06;8.90;1.00
5492;DHT22;2768;53.540;10.224;2023-11-21T06:19:01;8.90;1.00
5492;DHT22;2768;53.540;10.224;2023-11-21T06:24:55;8.90;1.00
5492;DHT22;2768;53.540;10.224;2023-11-21T06:30:48;8.80;1.00
5492;DHT22;2768;53.540;10.224;2023-11-21T06:36:45;9.00;1.00
5492;DHT22;2768;53.540;10.224;2023-11-21T06:42:38;8.80;1.00
5492;DHT22;2768;53.540;10.224;2023-11-21T06:48:34;9.10;1.00
5492;DHT22;2768;53.540;10.224;2023-11-21T06:54:32;9.10;1.00
5492;DHT22;2768;53.540;10.224;2023-11-21T07:00:26;9.00;1.00
5492;DHT22;2768;53.540;10.224;2023-11-21T07:06:20;8.70;1.00
5492;DHT22;2768;53.540;10.224;2023-11-21T07:12:15;8.90;1.00
5492;DHT22;2768;53.540;10.224;2023-11-21T07:18:08;8.80;1.00
5492;DHT22;2768;53.540;10.224;2023-11-21T07:24:02;8.80;1.00
5492;DHT22;2768;53.540;10.224;2023-11-21T07:29:57;8.80;1.00
5492;DHT22;2768;53.540;10.224;2023-11-21T07:35:50;8.80;1.00
5492;DHT22;2768;53.540;10.224;2023-11-21T07:41:43;8.60;1.00
5492;DHT22;2768;53.540;10.224;2023-11-21T07:47:42;8.70;1.00
5492;DHT22;2768;53.540;10.224;2023-11-21T07:53:36;8.70;1.00
5492;DHT22;2768;53.540;10.224;2023-11-21T07:59:29;8.70;1.00
5492;DHT22;2768;53.540;10.224;2023-11-21T08:05:24;8.50;1.00
5492;DHT22;2768;53.540;10.224;2023-11-21T08:11:28;8.70;1.00
5492;DHT22;2768;53.540;10.224;2023-11-21T08:17:23;8.70;1.00
5492;DHT22;2768;53.540;10.224;2023-11-21T08:23:18;8.80;1.00
5492;DHT22;2768;53.540;10.224;2023-11-21T08:29:11;8.90;1.00
5492;DHT22;2768;53.540;10.224;2023-11-21T08:35:07;8.80;1.00
5492;DHT22;2768;53.540;10.224;2023-11-21T08:41:04;8.80;1.00
5492;DHT22;2768;53.540;10.224;2023-11-21T08:46:59;8.90;1.00
5492;DHT22;2768;53.540;10.224;2023-11-21T08:52:53;8.70;1.00
5492;DHT22;2768;53.540;10.224;2023-11-21T08:58:47;8.80;1.00
5492;DHT22;2768;53.540;10.224;2023-11-21T09:04:42;9.00;1.00
5492;DHT22;2768;53.540;10.224;2023-11-21T09:10:37;9.20;1.00
5492;DHT22;2768;53.540;10.224;2023-11-21T09:16:33;9.00;1.00
5492;DHT22;2768;53.540;10.224;2023-11-21T09:22:26;9.00;1.00
5492;DHT22;2768;53.540;10.224;2023-11-21T09:28:22;8.80;1.00
5492;DHT22;2768;53.540;10.224;2023-11-21T09:34:16;8.90;1.00
5492;DHT22;2768;53.540;10.224;2023-11-21T09:40:11;9.00;1.00
5492;DHT22;2768;53.540;10.224;2023-11-21T09:46:06;9.20;1.00
5492;DHT22;2768;53.540;10.224;2023-11-21T09:52:07;9.00;1.00
5492;DHT22;2768;53.540;10.224;2023-11-21T09:58:02;9.10;1.00
5492;DHT22;2768;53.540;10.224;2023-11-21T10:03:57;9.20;1.00
5492;DHT22;2768;53.540;10.224;2023-11-21T10:09:53;9.10;1.00
5492;DHT22;2768;53.540;10.224;2023-11-21T10:15:49;8.90;1.00
5492;DHT22;2768;53.540;10.224;2023-11-21T10:21:43;9.30;1.00
5492;DHT22;2768;53.540;10.224;2023-11-21T10:27:37;9.30;1.00
5492;DHT22;2768;53.540;10.224;2023-11-21T10:33:31;9.30;1.00
5492;DHT22;2768;53.540;10.224;2023-11-21T10:39:25;9.50;1.00
5492;DHT22;2768;53.540;10.224;2023-11-21T10:45:24;9.40;1.00
5492;DHT22;2768;53.540;10.224;2023-11-21T10:51:18;9.40;1.00
5492;DHT22;2768;53.540;10.224;2023-11-21T10:57:14;9.30;1.00
5492;DHT22;2768;53.540;10.224;2023-11-21T11:03:12;8.90;1.00
5492;DHT22;2768;53.540;10.224;2023-11-21T11:09:10;8.80;1.00
5492;DHT22;2768;53.540;10.224;2023-11-21T11:15:06;9.10;1.00
5492;DHT22;2768;53.540;10.224;2023-11-21T11:21:07;9.20;1.00
5492;DHT22;2768;53.540;10.224;2023-11-21T11:27:11;9.30;1.00
5492;DHT22;2768;53.540;10.224;2023-11-21T11:33:20;9.10;1.00
5492;DHT22;2768;53.540;10.224;2023-11-21T11:39:29;9.20;1.00
5492;DHT22;2768;53.540;10.224;2023-11-21T11:45:31;9.00;1.00
5492;DHT22;2768;53.540;10.224;2023-11-21T11:51:25;8.80;1.00
5492;DHT22;2768;53.540;10.224;2023-11-21T11:57:24;8.90;99.90
5492;DHT22;2768;53.540;10.224;2023-11-21T12:03:18;8.70;99.90
5492;DHT22;2768;53.540;10.224;2023-11-21T12:09:17;8.80;99.90
5492;DHT22;2768;53.540;10.224;2023-11-21T12:15:12;9.00;99.90
5492;DHT22;2768;53.540;10.224;2023-11-21T12:21:06;9.10;1.00
5492;DHT22;2768;53.540;10.224;2023-11-21T12:27:02;8.90;99.90
5492;DHT22;2768;53.540;10.224;2023-11-21T12:32:57;8.90;99.90
5492;DHT22;2768;53.540;10.224;2023-11-21T12:38:51;8.70;99.90
5492;DHT22;2768;53.540;10.224;2023-11-21T12:44:46;8.80;99.90
5492;DHT22;2768;53.540;10.224;2023-11-21T12:50:41;8.60;99.90
5492;DHT22;2768;53.540;10.224;2023-11-21T12:56:38;8.60;99.90
5492;DHT22;2768;53.540;10.224;2023-11-21T13:02:31;8.40;99.90
5492;DHT22;2768;53.540;10.224;2023-11-21T13:08:28;8.50;1.00
5492;DHT22;2768;53.540;10.224;2023-11-21T13:14:29;8.60;1.00
5492;DHT22;2768;53.540;10.224;2023-11-21T13:20:23;8.40;99.90
5492;DHT22;2768;53.540;10.224;2023-11-21T13:26:18;8.50;99.90
5492;DHT22;2768;53.540;10.224;2023-11-21T13:32:12;8.60;99.90
5492;DHT22;2768;53.540;10.224;2023-11-21T13:38:09;8.40;99.90
5492;DHT22;2768;53.540;10.224;2023-11-21T13:44:04;8.40;1.00
5492;DHT22;2768;53.540;10.224;2023-11-21T13:50:08;8.50;1.00
5492;DHT22;2768;53.540;10.224;2023-11-21T13:56:08;8.40;1.00
5492;DHT22;2768;53.540;10.224;2023-11-21T14:02:04;8.60;1.00
5492;DHT22;2768;53.540;10.224;2023-11-21T14:08:10;8.40;1.00
5492;DHT22;2768;53.540;10.224;2023-11-21T14:14:08;8.20;99.90
5492;DHT22;2768;53.540;10.224;2023-11-21T14:20:03;8.30;1.00
5492;DHT22;2768;53.540;10.224;2023-11-21T14:25:57;8.30;1.00
5492;DHT22;2768;53.540;10.224;2023-11-21T14:31:53;8.30;99.90
5492;DHT22;2768;53.540;10.224;2023-11-21T14:37:50;8.10;99.90
5492;DHT22;2768;53.540;10.224;2023-11-21T14:43:44;8.20;99.90
5492;DHT22;2768;53.540;10.224;2023-11-21T14:49:38;8.40;99.90
5492;DHT22;2768;53.540;10.224;2023-11-21T14:55:46;8.40;99.90
5492;DHT22;2768;53.540;10.224;2023-11-21T15:01:49;8.40;99.90
5492;DHT22;2768;53.540;10.224;2023-11-21T15:07:47;8.30;99.90
5492;DHT22;2768;53.540;10.224;2023-11-21T15:13:43;8.20;99.90
5492;DHT22;2768;53.540;10.224;2023-11-21T15:19:36;7.90;99.90
5492;DHT22;2768;53.540;10.224;2023-11-21T15:25:30;8.10;99.90
5492;DHT22;2768;53.540;10.224;2023-11-21T15:31:25;7.90;99.90
5492;DHT22;2768;53.540;10.224;2023-11-21T15:37:20;7.90;99.90
5492;DHT22;2768;53.540;10.224;2023-11-21T15:43:13;7.80;99.90
5492;DHT22;2768;53.540;10.224;2023-11-21T15:49:10;7.90;99.90
5492;DHT22;2768;53.540;10.224;2023-11-21T15:55:05;7.90;99.90
5492;DHT22;2768;53.540;10.224;2023-11-21T16:01:01;7.60;99.90
5492;DHT22;2768;53.540;10.224;2023-11-21T16:06:56;7.70;1.00
5492;DHT22;2768;53.540;10.224;2023-11-21T16:12:51;7.60;99.90
5492;DHT22;2768;53.540;10.224;2023-11-21T16:18:44;7.50;99.90
5492;DHT22;2768;53.540;10.224;2023-11-21T16:24:39;7.80;99.90
5492;DHT22;2768;53.540;10.224;2023-11-21T16:30:33;7.70;99.90
5492;DHT22;2768;53.540;10.224;2023-11-21T16:36:27;7.50;99.90
5492;DHT22;2768;53.540;10.224;2023-11-21T16:42:21;7.60;99.90
5492;DHT22;2768;53.540;10.224;2023-11-21T16:48:15;7.60;99.90
5492;DHT22;2768;53.540;10.224;2023-11-21T16:54:08;7.40;99.90
5492;DHT22;2768;53.540;10.224;2023-11-21T17:00:04;7.40;99.90
5492;DHT22;2768;53.540;10.224;2023-11-21T17:06:00;7.20;99.90
5492;DHT22;2768;53.540;10.224;2023-11-21T17:11:53;7.40;99.90
5492;DHT22;2768;53.540;10.224;2023-11-21T17:17:49;7.20;99.90
5492;DHT22;2768;53.540;10.224;2023-11-21T17:23:47;6.80;99.90
5492;DHT22;2768;53.540;10.224;2023-11-21T17:29:40;7.10;99.90
5492;DHT22;2768;53.540;10.224;2023-11-21T17:35:35;7.20;99.90
5492;DHT22;2768;53.540;10.224;2023-11-21T17:41:28;7.30;99.90
5492;DHT22;2768;53.540;10.224;2023-11-21T17:47:22;7.40;99.90
5492;DHT22;2768;53.540;10.224;2023-11-21T17:53:19;7.40;99.90
5492;DHT22;2768;53.540;10.224;2023-11-21T17:59:12;6.80;99.90
5492;DHT22;2768;53.540;10.224;2023-11-21T18:05:08;6.90;99.90
5492;DHT22;2768;53.540;10.224;2023-11-21T18:11:06;6.70;99.90
5492;DHT22;2768;53.540;10.224;2023-11-21T18:16:59;6.90;99.90
5492;DHT22;2768;53.540;10.224;2023-11-21T18:22:53;6.70;99.90
5492;DHT22;2768;53.540;10.224;2023-11-21T18:28:47;6.70;99.90
5492;DHT22;2768;53.540;10.224;2023-11-21T18:34:41;7.20;1.00
5492;DHT22;2768;53.540;10.224;2023-11-21T18:40:35;7.10;99.90
5492;DHT22;2768;53.540;10.224;2023-11-21T18:46:36;6.90;99.90
5492;DHT22;2768;53.540;10.224;2023-11-21T18:52:30;6.80;99.90
5492;DHT22;2768;53.540;10.224;2023-11-21T18:58:25;6.50;99.90
5492;DHT22;2768;53.540;10.224;2023-11-21T19:04:20;6.50;99.90
5492;DHT22;2768;53.540;10.224;2023-11-21T19:10:16;6.90;1.00
5492;DHT22;2768;53.540;10.224;2023-11-21T19:16:11;6.90;99.90
5492;DHT22;2768;53.540;10.224;2023-11-21T19:22:07;6.70;99.90
5492;DHT22;2768;53.540;10.224;2023-11-21T19:28:01;7.10;1.00
5492;DHT22;2768;53.540;10.224;2023-11-21T19:33:54;6.70;99.90
5492;DHT22;2768;53.540;10.224;2023-11-21T19:39:49;6.70;99.90
5492;DHT22;2768;53.540;10.224;2023-11-21T19:45:43;6.60;99.90
5492;DHT22;2768;53.540;10.224;2023-11-21T19:51:37;6.60;99.90
5492;DHT22;2768;53.540;10.224;2023-11-21T19:57:32;6.50;1.00
5492;DHT22;2768;53.540;10.224;2023-11-21T20:03:25;6.60;99.90
5492;DHT22;2768;53.540;10.224;2023-11-21T20:09:20;6.70;99.90
5492;DHT22;2768;53.540;10.224;2023-11-21T20:15:15;6.70;99.90
5492;DHT22;2768;53.540;10.224;2023-11-21T20:21:09;6.30;99.90
5492;DHT22;2768;53.540;10.224;2023-11-21T20:27:03;6.30;99.90
5492;DHT22;2768;53.540;10.224;2023-11-21T20:32:59;6.60;99.90
5492;DHT22;2768;53.540;10.224;2023-11-21T20:38:55;6.80;99.90
5492;DHT22;2768;53.540;10.224;2023-11-21T20:44:48;6.70;99.90
5492;DHT22;2768;53.540;10.224;2023-11-21T20:50:43;6.90;99.90
5492;DHT22;2768;53.540;10.224;2023-11-21T20:56:36;6.50;99.90
5492;DHT22;2768;53.540;10.224;2023-11-21T21:02:30;6.60;99.90
5492;DHT22;2768;53.540;10.224;2023-11-21T21:08:25;6.70;99.90
5492;DHT22;2768;53.540;10.224;2023-11-21T21:14:18;6.90;99.90
5492;DHT22;2768;53.540;10.224;2023-11-21T21:20:14;6.60;99.90
5492;DHT22;2768;53.540;10.224;2023-11-21T21:26:09;6.90;99.90
5492;DHT22;2768;53.540;10.224;2023-11-21T21:32:04;6.70;99.90
5492;DHT22;2768;53.540;10.224;2023-11-21T21:37:57;6.50;99.90
5492;DHT22;2768;53.540;10.224;2023-11-21T21:43:53;6.50;99.90
5492;DHT22;2768;53.540;10.224;2023-11-21T21:49:46;6.70;99.90
5492;DHT22;2768;53.540;10.224;2023-11-21T21:55:40;6.70;99.90
5492;DHT22;2768;53.540;10.224;2023-11-21T22:01:36;6.50;99.90
5492;DHT22;2768;53.540;10.224;2023-11-21T22:07:29;6.20;99.90
5492;DHT22;2768;53.540;10.224;2023-11-21T22:13:23;6.40;99.90
5492;DHT22;2768;53.540;10.224;2023-11-21T22:19:17;6.50;99.90
5492;DHT22;2768;53.540;10.224;2023-11-21T22:25:11;6.30;99.90
5492;DHT22;2768;53.540;10.224;2023-11-21T22:31:05;6.20;99.90
5492;DHT22;2768;53.540;10.224;2023-11-21T22:37:05;6.10;99.90
5492;DHT22;2768;53.540;10.224;2023-11-21T22:42:58;6.20;99.90
5492;DHT22;2768;53.540;10.224;2023-11-21T22:48:52;6.10;99.90
5492;DHT22;2768;53.540;10.224;2023-11-21T22:54:47;6.20;99.90
5492;DHT22;2768;53.540;10.224;2023-11-21T23:00:40;6.10;99.90
5492;DHT22;2768;53.540;10.224;2023-11-21T23:06:34;5.90;99.90
5492;DHT22;2768;53.540;10.224;2023-11-21T23:12:29;5.60;99.90
5492;DHT22;2768;53.540;10.224;2023-11-21T23:18:22;5.50;99.90
5492;DHT22;2768;53.540;10.224;2023-11-21T23:24:20;5.70;99.90
5492;DHT22;2768;53.540;10.224;2023-11-21T23:30:15;5.40;99.90
5492;DHT22;2768;53.540;10.224;2023-11-21T23:36:08;5.60;99.90
5492;DHT22;2768;53.540;10.224;2023-11-21T23:42:02;5.60;99.90
5492;DHT22;2768;53.540;10.224;2023-11-21T23:47:57;5.90;99.90
5492;DHT22;2768;53.540;10.224;2023-11-21T23:53:50;5.70;99.90
5492;DHT22;2768;53.540;10.224;2023-11-21T23:59:43;6.00;99.90
